Time;durP1;ratioP1;P1;durP2;ratioP2;P2;SDS_P1;SDS_P2;PMS_P1;PMS_P2;Temp;Humidity;BMP_temperature;BMP_pressure;BME280_temperature;BME280_humidity;BME280_pressure;Samples;Min_cycle;Max_cycle;Signal;HPM_P1;HPM_P2
2021/12/16 00:04:45;;;;;;;29.08;11.75;;;;;;;;;;5134764;27;20054;-74
2021/12/16 00:09:22;;;;;;;27.85;12.50;;;;;;;;;;5133476;27;20378;-75
2021/12/16 00:33:31;;;;;;;27.55;10.45;;;;;;;;;;5131903;27;20058;-78
2021/12/16 00:35:57;;;;;;;31.70;11.40;;;;;;;;;;5125042;27;20062;-71
2021/12/16 00:38:23;;;;;;;26.95;10.25;;;;;;;;;;5121720;27;20046;-72
2021/12/16 00:40:49;;;;;;;27.58;10.20;;;;;;;;;;5103913;27;20111;-72
2021/12/16 00:43:26;;;;;;;19.80;9.88;;;;;;;;;;5120342;27;20070;-74
2021/12/16 00:56:00;;;;;;;25.10;10.90;;;;;;;;;;5119718;27;20131;-71
2021/12/16 00:58:33;;;;;;;28.02;10.20;;;;;;;;;;5123032;27;20167;-71
2021/12/16 01:01:31;;;;;;;20.48;9.75;;;;;;;;;;5121351;27;20039;-71
2021/12/16 01:09:41;;;;;;;30.92;11.10;;;;;;;;;;5104257;27;20057;-77
2021/12/16 01:52:21;;;;;;;22.50;11.52;;;;;;;;;;5124105;27;20397;-72
2021/12/16 01:57:37;;;;;;;29.50;11.77;;;;;;;;;;5156177;27;20508;-72
2021/12/16 02:00:09;;;;;;;26.25;12.20;;;;;;;;;;5108585;27;20849;-72
2021/12/16 02:02:45;;;;;;;33.95;12.05;;;;;;;;;;5120970;27;20042;-72
2021/12/16 02:05:35;;;;;;;29.02;12.20;;;;;;;;;;5121188;27;20109;-73
2021/12/16 02:10:36;;;;;;;29.33;11.63;;;;;;;;;;5122299;27;20371;-72
2021/12/16 02:32:34;;;;;;;31.88;12.63;;;;;;;;;;5126044;27;20087;-72
2021/12/16 02:35:25;;;;;;;26.10;11.32;;;;;;;;;;5145818;27;20063;-71
2021/12/16 02:37:49;;;;;;;24.30;12.35;;;;;;;;;;5120635;27;20126;-71
2021/12/16 02:40:18;;;;;;;33.03;10.60;;;;;;;;;;5122436;27;20047;-75
2021/12/16 02:42:56;;;;;;;33.30;10.75;;;;;;;;;;5125839;27;20035;-71
2021/12/16 02:48:34;;;;;;;30.23;11.93;;;;;;;;;;5089324;27;20055;-71
2021/12/16 02:51:04;;;;;;;24.10;10.98;;;;;;;;;;5126396;27;20070;-72
2021/12/16 02:53:30;;;;;;;32.40;12.23;;;;;;;;;;5128021;27;20134;-71
2021/12/16 02:55:57;;;;;;;32.95;11.43;;;;;;;;;;5125824;27;20126;-72
2021/12/16 02:58:24;;;;;;;30.50;10.52;;;;;;;;;;5132020;27;20039;-71
2021/12/16 03:00:54;;;;;;;30.55;12.07;;;;;;;;;;5141725;27;20695;-71
2021/12/16 03:03:20;;;;;;;28.70;11.32;;;;;;;;;;5123135;27;20073;-71
2021/12/16 03:05:46;;;;;;;27.95;11.00;;;;;;;;;;5145867;27;20038;-71
2021/12/16 03:08:13;;;;;;;27.27;11.30;;;;;;;;;;5128735;27;20121;-75
2021/12/16 03:13:37;;;;;;;26.50;10.60;;;;;;;;;;5119277;27;20063;-71
2021/12/16 03:18:52;;;;;;;27.95;11.25;;;;;;;;;;5122880;27;20513;-73
2021/12/16 03:21:25;;;;;;;35.70;12.05;;;;;;;;;;5130925;27;20045;-71
2021/12/16 03:29:11;;;;;;;26.95;12.15;;;;;;;;;;5124822;27;20391;-71
2021/12/16 03:37:14;;;;;;;32.67;13.18;;;;;;;;;;5137601;27;20092;-71
2021/12/16 03:39:46;;;;;;;36.65;14.77;;;;;;;;;;5129897;27;20050;-73
2021/12/16 03:42:13;;;;;;;34.20;13.77;;;;;;;;;;5126752;27;20043;-71
2021/12/16 03:44:54;;;;;;;40.80;14.65;;;;;;;;;;5103910;27;20077;-71
2021/12/16 03:47:22;;;;;;;33.70;13.73;;;;;;;;;;5143865;27;20477;-71
2021/12/16 03:49:49;;;;;;;28.30;14.20;;;;;;;;;;5129290;27;20446;-71
2021/12/16 03:52:16;;;;;;;32.60;14.25;;;;;;;;;;5122943;27;20123;-71
2021/12/16 03:54:49;;;;;;;42.42;15.10;;;;;;;;;;5121054;27;20092;-72
2021/12/16 03:57:16;;;;;;;33.38;14.32;;;;;;;;;;5120501;27;20055;-71
2021/12/16 03:59:42;;;;;;;39.47;14.27;;;;;;;;;;5126624;27;20038;-71
2021/12/16 04:02:14;;;;;;;37.88;15.05;;;;;;;;;;5127607;27;20124;-71
2021/12/16 04:04:41;;;;;;;35.55;14.52;;;;;;;;;;5126805;27;20470;-72
2021/12/16 04:07:07;;;;;;;43.03;15.13;;;;;;;;;;5109963;27;20344;-71
2021/12/16 04:09:34;;;;;;;40.63;16.05;;;;;;;;;;5120975;27;20382;-78
2021/12/16 04:12:09;;;;;;;37.50;16.40;;;;;;;;;;5121791;27;20559;-72
2021/12/16 04:14:36;;;;;;;38.92;15.55;;;;;;;;;;5124318;27;20042;-72
2021/12/16 04:17:03;;;;;;;37.83;14.65;;;;;;;;;;5145921;27;20426;-71
2021/12/16 04:19:30;;;;;;;49.55;16.27;;;;;;;;;;5111583;27;20095;-74
2021/12/16 04:21:59;;;;;;;44.63;16.58;;;;;;;;;;5137076;27;20115;-71
2021/12/16 04:24:25;;;;;;;43.40;16.33;;;;;;;;;;5125321;27;20031;-71
2021/12/16 04:26:53;;;;;;;45.13;16.23;;;;;;;;;;5124059;27;20074;-71
2021/12/16 04:29:19;;;;;;;45.83;17.08;;;;;;;;;;5121475;27;20035;-71
2021/12/16 04:31:46;;;;;;;45.15;15.70;;;;;;;;;;5122458;27;20031;-74
2021/12/16 04:34:12;;;;;;;47.63;16.08;;;;;;;;;;5112604;27;20047;-71
2021/12/16 04:36:39;;;;;;;48.13;17.00;;;;;;;;;;5137803;27;20039;-71
2021/12/16 04:39:07;;;;;;;48.85;17.27;;;;;;;;;;5125486;27;20099;-71
2021/12/16 04:41:33;;;;;;;46.00;16.63;;;;;;;;;;5133424;27;20042;-71
2021/12/16 04:44:02;;;;;;;35.97;14.95;;;;;;;;;;5137928;27;20039;-71
2021/12/16 04:46:29;;;;;;;34.05;14.10;;;;;;;;;;5123269;27;20071;-72
2021/12/16 04:48:57;;;;;;;56.17;16.95;;;;;;;;;;5127537;27;20161;-71
2021/12/16 04:51:25;;;;;;;43.85;15.88;;;;;;;;;;5125764;27;20130;-70
2021/12/16 04:53:51;;;;;;;42.85;15.88;;;;;;;;;;5126820;27;20058;-70
2021/12/16 04:56:18;;;;;;;44.90;16.27;;;;;;;;;;5121012;27;20099;-70
2021/12/16 04:58:46;;;;;;;36.75;16.67;;;;;;;;;;5105619;27;20054;-70
2021/12/16 05:01:13;;;;;;;39.67;16.40;;;;;;;;;;5157992;27;20481;-70
2021/12/16 05:03:39;;;;;;;43.35;17.60;;;;;;;;;;5141013;27;20130;-70
2021/12/16 05:06:06;;;;;;;48.22;16.00;;;;;;;;;;5122590;27;20043;-70
2021/12/16 05:08:32;;;;;;;35.17;13.75;;;;;;;;;;5138856;27;20079;-70
2021/12/16 05:11:01;;;;;;;49.80;15.63;;;;;;;;;;5116662;27;20096;-70
2021/12/16 05:13:28;;;;;;;28.30;12.07;;;;;;;;;;5094194;28;20070;-72
2021/12/16 05:16:01;;;;;;;32.47;14.15;;;;;;;;;;5095638;28;20043;-71
2021/12/16 05:18:32;;;;;;;40.55;15.10;;;;;;;;;;5106879;27;20090;-73
2021/12/16 05:20:59;;;;;;;48.35;16.80;;;;;;;;;;5096767;28;20044;-72
2021/12/16 05:28:37;;;;;;;51.78;18.38;;;;;;;;;;5094294;28;20047;-71
2021/12/16 05:31:03;;;;;;;61.20;19.23;;;;;;;;;;5093582;28;20040;-71
2021/12/16 05:33:30;;;;;;;61.80;20.50;;;;;;;;;;5099857;28;20052;-72
2021/12/16 05:35:57;;;;;;;55.28;18.02;;;;;;;;;;5090277;28;20483;-71
2021/12/16 05:38:24;;;;;;;54.50;18.73;;;;;;;;;;5094060;28;20225;-72
2021/12/16 05:40:50;;;;;;;57.22;19.27;;;;;;;;;;5107394;27;20043;-73
2021/12/16 05:43:17;;;;;;;55.00;17.25;;;;;;;;;;5094670;27;20040;-71
2021/12/16 05:45:44;;;;;;;46.35;16.73;;;;;;;;;;5102882;28;20451;-71
2021/12/16 05:48:12;;;;;;;63.53;17.92;;;;;;;;;;5103530;28;20044;-71
2021/12/16 05:50:41;;;;;;;59.05;17.85;;;;;;;;;;5097844;28;20044;-72
2021/12/16 05:53:07;;;;;;;51.78;17.77;;;;;;;;;;5092650;28;20040;-71
2021/12/16 05:55:34;;;;;;;45.72;17.85;;;;;;;;;;5094976;28;20066;-71
2021/12/16 05:58:02;;;;;;;55.00;19.02;;;;;;;;;;5108552;28;20466;-71
2021/12/16 06:00:30;;;;;;;52.35;17.83;;;;;;;;;;5104688;28;20079;-71
2021/12/16 06:02:57;;;;;;;42.45;16.38;;;;;;;;;;5106637;28;20083;-71
2021/12/16 06:05:23;;;;;;;63.15;20.38;;;;;;;;;;5098809;28;20402;-71
2021/12/16 06:07:49;;;;;;;58.90;19.63;;;;;;;;;;5102293;28;20036;-71
2021/12/16 06:13:01;;;;;;;46.97;17.02;;;;;;;;;;5134126;27;20557;-71
2021/12/16 06:28:53;;;;;;;52.40;17.67;;;;;;;;;;5150294;27;20553;-71
2021/12/16 06:31:19;;;;;;;45.72;17.92;;;;;;;;;;5147324;27;20492;-71
2021/12/16 06:33:45;;;;;;;43.25;18.23;;;;;;;;;;5136066;27;20069;-72
2021/12/16 06:36:11;;;;;;;39.22;17.35;;;;;;;;;;5147542;27;20050;-71
2021/12/16 06:38:38;;;;;;;57.05;19.35;;;;;;;;;;5126874;27;20039;-71
2021/12/16 06:41:04;;;;;;;71.75;21.40;;;;;;;;;;5151742;27;20057;-77
2021/12/16 06:43:32;;;;;;;61.17;20.17;;;;;;;;;;5129464;27;20069;-72
2021/12/16 06:46:00;;;;;;;53.00;19.35;;;;;;;;;;5107366;27;20477;-74
2021/12/16 06:48:30;;;;;;;55.75;20.38;;;;;;;;;;5127180;27;20323;-74
2021/12/16 06:51:05;;;;;;;45.30;18.13;;;;;;;;;;5144331;27;20039;-73
2021/12/16 06:53:45;;;;;;;50.08;18.98;;;;;;;;;;5131243;27;20046;-71
2021/12/16 06:56:18;;;;;;;44.20;15.82;;;;;;;;;;5112766;27;20274;-72
2021/12/16 06:58:49;;;;;;;58.85;20.35;;;;;;;;;;5123977;27;20039;-71
2021/12/16 07:01:37;;;;;;;71.18;20.63;;;;;;;;;;5103982;27;20076;-71
2021/12/16 07:04:04;;;;;;;47.72;18.35;;;;;;;;;;5120489;27;20039;-72
2021/12/16 07:06:31;;;;;;;53.85;18.75;;;;;;;;;;5138589;27;20038;-72
2021/12/16 07:09:00;;;;;;;53.72;17.42;;;;;;;;;;5154760;27;20055;-72
2021/12/16 07:11:27;;;;;;;64.63;19.88;;;;;;;;;;5139395;27;20061;-76
2021/12/16 07:13:58;;;;;;;75.53;22.45;;;;;;;;;;5137549;27;20050;-73
2021/12/16 07:16:26;;;;;;;62.42;20.00;;;;;;;;;;5113749;27;20057;-73
2021/12/16 07:18:53;;;;;;;66.60;19.73;;;;;;;;;;5119688;27;20041;-73
2021/12/16 07:21:19;;;;;;;43.67;18.17;;;;;;;;;;5115618;27;20043;-72
2021/12/16 07:23:45;;;;;;;38.60;16.73;;;;;;;;;;5117445;27;20046;-73
2021/12/16 07:26:11;;;;;;;50.03;17.33;;;;;;;;;;5121699;27;20131;-72
2021/12/16 07:28:37;;;;;;;37.65;16.20;;;;;;;;;;5111075;27;20098;-72
2021/12/16 07:31:04;;;;;;;52.13;17.25;;;;;;;;;;5119492;27;20075;-73
2021/12/16 07:33:30;;;;;;;51.60;17.02;;;;;;;;;;5125241;27;20043;-72
2021/12/16 07:35:56;;;;;;;36.72;14.23;;;;;;;;;;5123831;27;20042;-73
2021/12/16 07:38:23;;;;;;;41.10;16.80;;;;;;;;;;5135761;27;20050;-73
2021/12/16 07:40:50;;;;;;;54.13;19.42;;;;;;;;;;5129362;27;20035;-79
2021/12/16 07:43:42;;;;;;;93.07;22.98;;;;;;;;;;5134779;27;20052;-72
2021/12/16 07:46:09;;;;;;;38.75;14.93;;;;;;;;;;5142445;27;20066;-73
2021/12/16 07:48:36;;;;;;;46.60;18.10;;;;;;;;;;5166665;27;20046;-72
2021/12/16 07:51:03;;;;;;;44.03;18.25;;;;;;;;;;5124294;27;20049;-75
2021/12/16 07:53:29;;;;;;;74.80;22.73;;;;;;;;;;5140007;27;20043;-75
2021/12/16 07:55:55;;;;;;;85.60;25.73;;;;;;;;;;5121593;27;20091;-73
2021/12/16 07:58:23;;;;;;;73.90;24.92;;;;;;;;;;5112363;27;20054;-75
2021/12/16 08:00:50;;;;;;;78.78;26.50;;;;;;;;;;5128316;27;20385;-72
2021/12/16 08:03:17;;;;;;;62.55;24.15;;;;;;;;;;5148036;27;20046;-72
2021/12/16 08:05:53;;;;;;;52.63;22.17;;;;;;;;;;5129365;27;20039;-73
2021/12/16 08:08:19;;;;;;;54.40;22.05;;;;;;;;;;5123198;27;20047;-73
2021/12/16 08:10:45;;;;;;;68.05;25.35;;;;;;;;;;5148266;27;20046;-74
2021/12/16 08:13:13;;;;;;;67.22;25.73;;;;;;;;;;5130048;27;20043;-73
2021/12/16 08:15:39;;;;;;;48.67;24.10;;;;;;;;;;5123386;27;20054;-73
2021/12/16 08:18:05;;;;;;;63.83;27.10;;;;;;;;;;5133496;27;20500;-73
2021/12/16 08:20:32;;;;;;;58.13;25.15;;;;;;;;;;5143975;27;20043;-73
2021/12/16 08:22:58;;;;;;;62.72;25.83;;;;;;;;;;5113403;27;20050;-74
2021/12/16 08:25:26;;;;;;;110.72;31.63;;;;;;;;;;5123777;27;20050;-74
2021/12/16 08:27:53;;;;;;;86.40;29.95;;;;;;;;;;5119088;27;20050;-79
2021/12/16 08:30:20;;;;;;;96.78;28.98;;;;;;;;;;5125992;27;20482;-75
2021/12/16 08:32:46;;;;;;;97.13;29.05;;;;;;;;;;5110972;27;20141;-73
2021/12/16 08:35:12;;;;;;;104.20;31.05;;;;;;;;;;5157159;27;20790;-75
2021/12/16 08:37:39;;;;;;;91.38;32.40;;;;;;;;;;5131485;27;20055;-73
2021/12/16 08:40:08;;;;;;;108.35;33.55;;;;;;;;;;5097044;27;20039;-73
2021/12/16 08:42:34;;;;;;;99.72;32.25;;;;;;;;;;5099455;27;20972;-74
2021/12/16 08:45:01;;;;;;;94.57;32.15;;;;;;;;;;5161457;27;20122;-80
2021/12/16 08:47:27;;;;;;;99.57;31.77;;;;;;;;;;5131570;27;20035;-76
2021/12/16 08:49:53;;;;;;;101.03;32.20;;;;;;;;;;5144924;27;20031;-76
2021/12/16 08:52:20;;;;;;;94.32;32.45;;;;;;;;;;5121109;27;20039;-75
2021/12/16 08:54:47;;;;;;;94.85;31.42;;;;;;;;;;5149564;27;20081;-74
2021/12/16 08:57:13;;;;;;;87.90;30.92;;;;;;;;;;5119734;27;20095;-79
2021/12/16 08:59:39;;;;;;;114.60;34.30;;;;;;;;;;5137977;27;20478;-75
2021/12/16 09:02:07;;;;;;;127.68;34.75;;;;;;;;;;5137764;27;20051;-75
2021/12/16 09:04:34;;;;;;;130.25;35.88;;;;;;;;;;5117081;27;20123;-75
2021/12/16 09:07:01;;;;;;;134.77;36.33;;;;;;;;;;5126846;27;20474;-75
2021/12/16 09:09:32;;;;;;;95.88;31.27;;;;;;;;;;5127917;27;20057;-75
2021/12/16 09:12:14;;;;;;;139.45;36.45;;;;;;;;;;5123659;27;20141;-75
2021/12/16 09:14:42;;;;;;;175.15;40.00;;;;;;;;;;5123093;27;20053;-74
2021/12/16 09:17:11;;;;;;;232.70;44.00;;;;;;;;;;5155327;27;20492;-75
2021/12/16 09:19:38;;;;;;;246.63;47.20;;;;;;;;;;5133312;27;20039;-75
2021/12/16 09:22:05;;;;;;;261.13;46.88;;;;;;;;;;5157702;27;20408;-75
2021/12/16 09:24:31;;;;;;;195.52;42.28;;;;;;;;;;5138984;27;20093;-75
2021/12/16 09:26:57;;;;;;;341.73;52.85;;;;;;;;;;5112647;27;20066;-83
2021/12/16 09:29:23;;;;;;;325.67;51.55;;;;;;;;;;5115829;27;20085;-75
2021/12/16 09:31:49;;;;;;;300.08;47.80;;;;;;;;;;5125845;27;20416;-75
2021/12/16 09:34:15;;;;;;;205.20;43.90;;;;;;;;;;5115153;27;20051;-75
2021/12/16 09:36:43;;;;;;;362.50;51.55;;;;;;;;;;5125216;27;20080;-75
2021/12/16 09:39:12;;;;;;;337.88;48.75;;;;;;;;;;5115157;27;20126;-75
2021/12/16 09:41:40;;;;;;;322.55;48.20;;;;;;;;;;5121430;27;20039;-75
2021/12/16 09:44:06;;;;;;;358.88;49.28;;;;;;;;;;5129874;27;20034;-81
2021/12/16 09:46:32;;;;;;;402.35;54.00;;;;;;;;;;5139920;27;20039;-74
2021/12/16 09:48:59;;;;;;;346.98;50.92;;;;;;;;;;5150242;27;20123;-75
2021/12/16 09:51:27;;;;;;;304.75;48.63;;;;;;;;;;5140505;27;20042;-75
2021/12/16 09:54:02;;;;;;;403.58;52.78;;;;;;;;;;5118240;27;20085;-75
2021/12/16 09:56:28;;;;;;;241.98;46.63;;;;;;;;;;5130831;27;20497;-75
2021/12/16 09:58:56;;;;;;;194.48;40.85;;;;;;;;;;5115039;27;20082;-75
2021/12/16 10:01:23;;;;;;;262.98;39.63;;;;;;;;;;5159213;27;20485;-75
2021/12/16 10:03:50;;;;;;;368.95;50.45;;;;;;;;;;5134660;27;20067;-75
2021/12/16 10:06:17;;;;;;;384.73;51.63;;;;;;;;;;5150907;27;20095;-76
2021/12/16 10:08:43;;;;;;;407.50;56.67;;;;;;;;;;5156367;27;20046;-75
2021/12/16 10:11:10;;;;;;;462.25;57.10;;;;;;;;;;5106035;27;20090;-75
2021/12/16 10:19:08;;;;;;;423.00;55.50;;;;;;;;;;5101153;28;20051;-74
2021/12/16 10:21:35;;;;;;;511.08;61.50;;;;;;;;;;5110481;28;20051;-75
2021/12/16 10:24:01;;;;;;;243.23;40.45;;;;;;;;;;5093701;28;20047;-85
2021/12/16 10:26:27;;;;;;;364.13;48.67;;;;;;;;;;5098880;28;20047;-75
2021/12/16 10:28:56;;;;;;;431.80;50.40;;;;;;;;;;5104753;28;20057;-75
2021/12/16 10:31:30;;;;;;;513.90;55.88;;;;;;;;;;5106567;28;20070;-76
2021/12/16 10:33:58;;;;;;;495.63;57.25;;;;;;;;;;5104724;28;20471;-80
2021/12/16 10:36:24;;;;;;;385.38;49.05;;;;;;;;;;5093956;28;20051;-75
2021/12/16 10:38:52;;;;;;;523.78;59.90;;;;;;;;;;5091521;28;20074;-77
2021/12/16 10:41:23;;;;;;;432.10;51.72;;;;;;;;;;5081632;28;20371;-74
2021/12/16 10:44:05;;;;;;;442.38;53.28;;;;;;;;;;5095224;28;20052;-83
2021/12/16 10:46:33;;;;;;;445.00;52.00;;;;;;;;;;5094385;28;20047;-75
2021/12/16 10:49:01;;;;;;;553.45;57.60;;;;;;;;;;5091431;28;20039;-75
2021/12/16 10:51:30;;;;;;;532.75;57.15;;;;;;;;;;5091291;28;20753;-75
2021/12/16 10:54:17;;;;;;;407.52;47.20;;;;;;;;;;5094591;28;20039;-75
2021/12/16 10:56:55;;;;;;;536.88;54.10;;;;;;;;;;5105340;28;20044;-74
2021/12/16 10:59:33;;;;;;;441.80;54.13;;;;;;;;;;5099299;28;20067;-77
2021/12/16 11:02:01;;;;;;;459.25;51.72;;;;;;;;;;5092272;28;20417;-75
2021/12/16 11:04:29;;;;;;;417.73;51.20;;;;;;;;;;5082423;28;20527;-75
2021/12/16 11:07:04;;;;;;;318.27;42.40;;;;;;;;;;5105603;28;20040;-74
2021/12/16 11:09:33;;;;;;;443.92;51.30;;;;;;;;;;5096129;28;20044;-74
2021/12/16 11:12:07;;;;;;;416.67;51.58;;;;;;;;;;5103516;28;20087;-81
2021/12/16 11:14:33;;;;;;;;;;;;;;;;;;5100228;28;20052;-74
2021/12/16 11:17:00;;;;;;;486.75;48.72;;;;;;;;;;5109537;28;19939;-78
2021/12/16 11:19:45;;;;;;;362.45;46.15;;;;;;;;;;5097621;28;20043;-74
2021/12/16 11:22:12;;;;;;;395.15;48.70;;;;;;;;;;5097930;28;20111;-74
2021/12/16 11:24:38;;;;;;;217.88;37.25;;;;;;;;;;5104409;28;20043;-80
2021/12/16 11:27:42;;;;;;;361.50;45.03;;;;;;;;;;5103589;28;20040;-74
2021/12/16 11:30:19;;;;;;;328.43;44.80;;;;;;;;;;5030406;28;20068;-75
2021/12/16 11:32:47;;;;;;;308.15;43.30;;;;;;;;;;5131533;27;20293;-74
2021/12/16 11:35:27;;;;;;;264.63;39.42;;;;;;;;;;5095265;28;20486;-77
2021/12/16 11:37:54;;;;;;;303.10;41.80;;;;;;;;;;5100619;28;20044;-75
2021/12/16 11:40:20;;;;;;;434.23;49.60;;;;;;;;;;5100948;28;20039;-74
2021/12/16 11:43:00;;;;;;;352.38;46.15;;;;;;;;;;5098066;28;20077;-75
2021/12/16 11:45:34;;;;;;;307.80;41.53;;;;;;;;;;5095087;28;20040;-76
2021/12/16 11:48:00;;;;;;;;;;;;;;;;;;5110271;27;20126;-78
2021/12/16 11:50:32;;;;;;;236.77;37.20;;;;;;;;;;5093848;28;19959;-74
2021/12/16 11:52:59;;;;;;;298.38;41.38;;;;;;;;;;5119229;27;20114;-74
2021/12/16 11:55:25;;;;;;;268.60;39.13;;;;;;;;;;5073191;28;20047;-74
2021/12/16 11:57:54;;;;;;;351.30;44.22;;;;;;;;;;5102116;27;20489;-78
2021/12/16 12:00:25;;;;;;;334.40;41.95;;;;;;;;;;5088529;28;20078;-75
2021/12/16 12:02:54;;;;;;;225.63;36.05;;;;;;;;;;5105432;28;20051;-75
2021/12/16 12:05:25;;;;;;;321.30;41.05;;;;;;;;;;5099237;28;20052;-76
2021/12/16 12:07:59;;;;;;;513.53;49.90;;;;;;;;;;5103494;28;20073;-76
2021/12/16 12:10:41;;;;;;;379.27;46.50;;;;;;;;;;5102193;27;20042;-74
2021/12/16 12:13:08;;;;;;;360.75;48.17;;;;;;;;;;5165117;27;20047;-75
2021/12/16 12:15:50;;;;;;;437.50;50.65;;;;;;;;;;5129393;27;20103;-75
2021/12/16 12:18:30;;;;;;;508.00;54.70;;;;;;;;;;5152888;27;20039;-77
2021/12/16 12:21:14;;;;;;;509.25;58.58;;;;;;;;;;5119881;27;20087;-74
2021/12/16 12:23:40;;;;;;;488.70;56.50;;;;;;;;;;5118006;27;20538;-75
2021/12/16 12:26:06;;;;;;;329.08;48.78;;;;;;;;;;5124286;27;20039;-75
2021/12/16 12:28:32;;;;;;;409.85;58.55;;;;;;;;;;5143471;27;20484;-75
2021/12/16 12:30:58;;;;;;;352.42;52.58;;;;;;;;;;5136026;27;20127;-74
2021/12/16 12:33:24;;;;;;;248.15;48.55;;;;;;;;;;5129869;27;20118;-71
2021/12/16 12:35:50;;;;;;;207.50;45.45;;;;;;;;;;5146936;27;20039;-73
2021/12/16 12:38:16;;;;;;;376.60;53.15;;;;;;;;;;5125036;27;20096;-83
2021/12/16 12:40:42;;;;;;;382.95;51.53;;;;;;;;;;5119433;27;20035;-72
2021/12/16 12:43:09;;;;;;;367.92;50.65;;;;;;;;;;5138639;27;20050;-74
2021/12/16 12:45:38;;;;;;;295.42;45.25;;;;;;;;;;5156517;27;20074;-73
2021/12/16 12:48:05;;;;;;;415.17;55.55;;;;;;;;;;5151500;27;20589;-75
2021/12/16 12:50:36;;;;;;;242.82;41.50;;;;;;;;;;5118005;27;20544;-74
2021/12/16 12:53:20;;;;;;;350.48;48.55;;;;;;;;;;5133688;27;20051;-74
2021/12/16 12:55:49;;;;;;;248.02;42.10;;;;;;;;;;5124278;27;20085;-76
2021/12/16 12:58:21;;;;;;;262.33;43.80;;;;;;;;;;5108112;27;20405;-75
2021/12/16 13:00:49;;;;;;;209.63;38.58;;;;;;;;;;5121469;27;20039;-75
2021/12/16 13:03:27;;;;;;;216.48;39.33;;;;;;;;;;5137914;27;20089;-74
2021/12/16 13:05:54;;;;;;;209.32;39.55;;;;;;;;;;5117913;27;20039;-75
2021/12/16 13:08:25;;;;;;;186.82;39.50;;;;;;;;;;5120323;27;20491;-74
2021/12/16 13:10:51;;;;;;;169.32;37.05;;;;;;;;;;5123525;27;20043;-75
2021/12/16 13:13:30;;;;;;;166.32;35.58;;;;;;;;;;5106670;27;20039;-75
2021/12/16 13:16:16;;;;;;;181.55;36.97;;;;;;;;;;5098075;27;20401;-74
2021/12/16 13:24:51;;;;;;;266.42;45.42;;;;;;;;;;5120362;27;20050;-74
2021/12/16 13:30:05;;;;;;;379.38;52.10;;;;;;;;;;5154415;27;20058;-75
2021/12/16 13:32:52;;;;;;;470.33;62.35;;;;;;;;;;5160139;27;20095;-74
2021/12/16 13:35:33;;;;;;;506.85;64.25;;;;;;;;;;5122537;27;20045;-75
2021/12/16 13:38:05;;;;;;;444.63;59.70;;;;;;;;;;5109301;27;20370;-75
2021/12/16 13:40:33;;;;;;;321.80;51.53;;;;;;;;;;5118893;27;20414;-74
2021/12/16 13:43:02;;;;;;;216.57;38.65;;;;;;;;;;5149363;27;20523;-73
2021/12/16 13:45:35;;;;;;;210.15;37.08;;;;;;;;;;5120329;27;20087;-73
2021/12/16 14:05:03;;;;;;;108.40;22.90;;;;;;;;;;5129124;27;19922;-76
2021/12/16 14:07:54;;;;;;;132.43;25.75;;;;;;;;;;5106141;27;20046;-76
2021/12/16 14:10:28;;;;;;;122.72;23.98;;;;;;;;;;5143516;27;20074;-77
2021/12/16 14:25:03;;;;;;;103.35;18.17;;;;;;;;;;5158319;27;20159;-75
2021/12/16 14:38:39;;;;;;;92.50;20.27;;;;;;;;;;5139666;27;20055;-79
2021/12/16 14:41:08;;;;;;;101.85;22.50;;;;;;;;;;5121489;27;20091;-75
2021/12/16 14:43:39;;;;;;;100.72;20.98;;;;;;;;;;5147921;27;20082;-75
2021/12/16 14:46:09;;;;;;;65.90;18.65;;;;;;;;;;5140141;27;20117;-76
2021/12/16 14:48:35;;;;;;;61.17;17.33;;;;;;;;;;5107215;27;20043;-75
2021/12/16 14:51:01;;;;;;;74.72;19.23;;;;;;;;;;5120751;27;20047;-74
2021/12/16 14:53:41;;;;;;;92.00;20.67;;;;;;;;;;5110808;27;20398;-74
2021/12/16 14:56:20;;;;;;;92.60;21.27;;;;;;;;;;5140730;27;20035;-75
2021/12/16 14:58:48;;;;;;;107.00;22.73;;;;;;;;;;5117825;27;20058;-75
2021/12/16 15:01:21;;;;;;;86.07;22.60;;;;;;;;;;5123125;27;20051;-74
2021/12/16 15:03:49;;;;;;;95.03;26.00;;;;;;;;;;5108301;27;20485;-76
2021/12/16 15:06:20;;;;;;;91.70;23.88;;;;;;;;;;5120264;27;20082;-74
2021/12/16 15:09:25;;;;;;;97.38;25.90;;;;;;;;;;5140290;27;20482;-79
2021/12/16 15:11:54;;;;;;;87.25;23.83;;;;;;;;;;5119045;27;20486;-72
2021/12/16 15:14:56;;;;;;;100.18;25.05;;;;;;;;;;5118505;27;20051;-73
2021/12/16 15:31:36;;;;;;;137.00;29.88;;;;;;;;;;5151527;27;20051;-73
2021/12/16 15:44:51;;;;;;;196.13;36.58;;;;;;;;;;5152079;27;20409;-74
2021/12/16 15:47:17;;;;;;;242.40;39.50;;;;;;;;;;5118815;27;20047;-76
2021/12/16 15:49:43;;;;;;;160.38;34.80;;;;;;;;;;5122006;27;20047;-80
2021/12/16 15:52:10;;;;;;;99.70;29.70;;;;;;;;;;5105224;27;20047;-74
2021/12/16 15:54:36;;;;;;;116.47;31.70;;;;;;;;;;5126540;27;20043;-75
2021/12/16 15:57:03;;;;;;;118.38;31.75;;;;;;;;;;5116320;27;20508;-75
2021/12/16 15:59:29;;;;;;;111.22;30.45;;;;;;;;;;5120841;27;20079;-75
2021/12/16 16:01:56;;;;;;;123.45;32.00;;;;;;;;;;5122854;27;20081;-75
2021/12/16 16:04:40;;;;;;;130.98;32.13;;;;;;;;;;5117314;27;20219;-75
2021/12/16 16:07:06;;;;;;;;;;;;;;;;;;5117697;27;20067;-77
2021/12/16 16:09:40;;;;;;;127.20;31.50;;;;;;;;;;5112820;27;20289;-75
2021/12/16 16:12:06;;;;;;;;;;;;;;;;;;5144310;27;20086;-75
2021/12/16 16:14:33;;;;;;;233.90;39.38;;;;;;;;;;5124338;27;20353;-75
2021/12/16 16:17:00;;;;;;;172.90;37.22;;;;;;;;;;5120487;27;20043;-75
2021/12/16 16:19:29;;;;;;;185.77;36.95;;;;;;;;;;5135023;27;20074;-76
2021/12/16 16:21:57;;;;;;;195.60;37.42;;;;;;;;;;5156553;27;20131;-74
2021/12/16 16:24:29;;;;;;;195.10;36.95;;;;;;;;;;5117279;27;20103;-75
2021/12/16 16:26:57;;;;;;;140.38;34.55;;;;;;;;;;5117423;27;20055;-76
2021/12/16 16:29:24;;;;;;;289.20;42.47;;;;;;;;;;5125171;27;20085;-75
2021/12/16 16:31:51;;;;;;;136.25;34.35;;;;;;;;;;5098804;27;20050;-76
2021/12/16 16:34:25;;;;;;;212.23;39.28;;;;;;;;;;5101101;27;20047;-75
2021/12/16 16:36:51;;;;;;;;;;;;;;;;;;5137326;27;20078;-73
2021/12/16 16:39:19;;;;;;;325.42;45.83;;;;;;;;;;5137706;27;19962;-74
2021/12/16 16:41:53;;;;;;;301.52;44.85;;;;;;;;;;5130345;27;20059;-76
2021/12/16 16:44:20;;;;;;;243.30;42.38;;;;;;;;;;5124022;27;21287;-78
2021/12/16 16:46:58;;;;;;;273.90;44.72;;;;;;;;;;5117389;27;20089;-76
2021/12/16 16:49:29;;;;;;;290.83;45.42;;;;;;;;;;5155981;27;20113;-75
2021/12/16 16:52:00;;;;;;;295.33;47.33;;;;;;;;;;5118793;27;20431;-75
2021/12/16 16:54:26;;;;;;;220.80;40.85;;;;;;;;;;5132488;27;20123;-79
2021/12/16 16:56:57;;;;;;;257.95;46.05;;;;;;;;;;5117151;27;20046;-81
2021/12/16 16:59:30;;;;;;;262.48;42.75;;;;;;;;;;5137764;27;20038;-77
2021/12/16 17:01:56;;;;;;;208.88;43.08;;;;;;;;;;5115861;27;20737;-75
2021/12/16 17:04:22;;;;;;;264.38;45.03;;;;;;;;;;5114077;27;20066;-75
2021/12/16 17:06:51;;;;;;;373.65;48.58;;;;;;;;;;5097781;27;20039;-74
2021/12/16 17:09:17;;;;;;;312.77;47.25;;;;;;;;;;5114265;27;20051;-75
2021/12/16 17:11:45;;;;;;;370.60;49.47;;;;;;;;;;5113878;27;20046;-77
2021/12/16 17:14:16;;;;;;;223.45;40.55;;;;;;;;;;5116818;27;20426;-77
2021/12/16 17:19:35;;;;;;;277.63;45.20;;;;;;;;;;5116242;27;20058;-76
2021/12/16 17:22:02;;;;;;;465.65;57.42;;;;;;;;;;5125117;27;20078;-75
2021/12/16 17:24:31;;;;;;;340.75;52.15;;;;;;;;;;5122810;27;20435;-82
2021/12/16 17:27:03;;;;;;;423.77;58.17;;;;;;;;;;5131359;27;21846;-72
2021/12/16 17:29:32;;;;;;;460.92;59.38;;;;;;;;;;5102843;27;20042;-74
2021/12/16 17:32:01;;;;;;;381.75;52.72;;;;;;;;;;5120792;27;20383;-73
2021/12/16 17:34:32;;;;;;;436.83;56.58;;;;;;;;;;5144591;27;20050;-73
2021/12/16 17:37:05;;;;;;;565.40;58.15;;;;;;;;;;5122542;27;20042;-72
2021/12/16 17:39:37;;;;;;;526.92;55.00;;;;;;;;;;5126798;27;20046;-72
2021/12/16 17:42:05;;;;;;;618.47;56.30;;;;;;;;;;5152107;27;20045;-78
2021/12/16 17:44:32;;;;;;;581.42;56.38;;;;;;;;;;5129264;27;20545;-74
2021/12/16 17:47:03;;;;;;;428.30;50.78;;;;;;;;;;5121827;27;20064;-74
2021/12/16 17:49:32;;;;;;;178.30;38.05;;;;;;;;;;5126301;27;20069;-72
2021/12/16 17:51:59;;;;;;;315.65;47.50;;;;;;;;;;5124916;27;20047;-74
2021/12/16 17:54:25;;;;;;;396.98;47.05;;;;;;;;;;5124623;27;20046;-77
2021/12/16 17:56:53;;;;;;;242.48;40.72;;;;;;;;;;5124476;27;20072;-76
2021/12/16 17:59:19;;;;;;;296.08;46.47;;;;;;;;;;5149792;27;20058;-76
2021/12/16 18:01:46;;;;;;;343.45;45.97;;;;;;;;;;5119024;27;20043;-73
2021/12/16 18:04:20;;;;;;;504.13;54.90;;;;;;;;;;5132332;27;20054;-79
2021/12/16 18:06:49;;;;;;;215.52;42.08;;;;;;;;;;5114729;27;20149;-77
2021/12/16 18:09:21;;;;;;;430.70;52.20;;;;;;;;;;5148040;27;20054;-76
2021/12/16 18:11:49;;;;;;;294.75;42.25;;;;;;;;;;5142293;27;20126;-74
2021/12/16 18:14:20;;;;;;;421.42;45.08;;;;;;;;;;5121899;27;20550;-74
2021/12/16 18:16:52;;;;;;;348.92;45.60;;;;;;;;;;5136524;27;20047;-79
2021/12/16 18:19:27;;;;;;;270.17;41.42;;;;;;;;;;5135577;27;20058;-73